Sequoia Natl Park, California
Current Conditions -  °F | °C
As of 11:15 AM on Saturday 25 Oct 2014 (Local Time) from KPTV Reporting Station
Clear Clear  
Wind Chill: 72°   Ceiling: Unl
Heat Index: 72°   Visibility: 10mi
Dew Point: 45°   Wind: 0mph
Humidity: 38%   Direction: NA
Pressure: 30.09"   Gusts: NA
Location:  36.5°N, 118.5°W
Report Text: KPTV 251815Z 00000KT 10SM CLR 22/07 A3009 RMK AO1
Loading
Personal Weather Stations






























Interactive Weather Map
Tropical Storm Tracking
New forecast layout! Learn more

10-Day Weather Forecast

Advertisements
Track Severe Weather on mobile